Impacts TAF Board
For situational awareness. Not to be used for flight planning purposes.
IDs:

KLEE - Leesburg Muni, FL, US

Issued at 0526 UTC 22 Oct 2021
Updated at 0652 UTC 22 Oct 2021
Potential Impact None Slight Moderate High
Time<<22/19Z 22/20Z 22/21Z 22/22Z 22/23Z 23/00Z 23/01Z 23/02Z 23/03Z 23/04Z 23/05Z 23/06Z 23/07Z>>
Type PRVL PRVL PRVL PRVL PRVL PRVL PRVL PRVL PRVL PRVL PRVL
VIS >6 >6 >6 >6 >6 >6 >6 >6 >6 >6 >6
CIG -- -- -- -- -- -- -- -- -- -- --
Cover SCT SCT SCT SCT SCT SCT SCT SCT SCT SCT SCT
FltCat VFR VFR VFR VFR VFR VFR VFR VFR VFR VFR VFR
WX -- -- -- -- -- -- -- -- -- -- --
WDir VRB VRB 90 90 90 90 VRB VRB VRB VRB VRB
WSpd 3 3 5 5 5 5 3 3 3 3 3
WGst -- -- -- -- -- -- -- -- -- -- --
Raw TAF
KLEE 220526Z 2206/2306 00000KT P6SM FEW250
  FM221500 VRB03KT P6SM SCT035 SCT250
  FM222100 09005KT P6SM SCT040 SCT200
  FM230100 VRB03KT P6SM FEW040 SCT250


METAR Board
Radar Display
Forecast Discussion
For situational awareness. Not to be used for flight planning purposes.